Time;durP1;ratioP1;P1;durP2;ratioP2;P2;SDS_P1;SDS_P2;PMS_P1;PMS_P2;Temp;Humidity;BMP_temperature;BMP_pressure;BME280_temperature;BME280_humidity;BME280_pressure;Samples;Min_cycle;Max_cycle;Signal;HPM_P1;HPM_P2
2022/11/19 00:01:12;;;;;;;4.60;4.20;;;;;;;17.52;100.00;-2453.91;5093216;28;20219;-59
2022/11/19 00:03:40;;;;;;;5.03;4.40;;;;;;;17.60;100.00;-838.88;5093691;28;20185;-60
2022/11/19 00:06:09;;;;;;;9.80;4.50;;;;;;;17.56;100.00;2069.63;5093732;28;20181;-59
2022/11/19 00:08:36;;;;;;;8.77;5.03;;;;;;;17.58;100.00;2716.56;5093834;28;20571;-59
2022/11/19 00:11:06;;;;;;;6.77;5.27;;;;;;;17.59;100.00;2393.25;5093497;28;20186;-60
2022/11/19 00:13:32;;;;;;;5.60;4.20;;;;;;;17.66;100.00;3364.25;5093863;28;20654;-59
2022/11/19 00:16:06;;;;;;;5.13;4.10;;;;;;;17.70;100.00;4011.78;5093733;28;20181;-60
2022/11/19 00:18:33;;;;;;;6.00;4.90;;;;;;;17.67;100.00;5306.06;5093260;28;20186;-59
2022/11/19 00:21:05;;;;;;;5.93;4.40;;;;;;;17.74;100.00;5630.81;5094291;28;20206;-59
2022/11/19 00:23:32;;;;;;;5.47;4.47;;;;;;;17.71;100.00;5630.38;5093308;28;20188;-60
2022/11/19 00:26:05;;;;;;;13.77;4.93;;;;;;;17.60;100.00;3363.66;5093551;28;20230;-59
2022/11/19 00:28:31;;;;;;;5.47;4.90;;;;;;;17.34;100.00;-194.03;5093158;28;20188;-59
2022/11/19 00:31:05;;;;;;;7.77;5.10;;;;;;;17.34;100.00;-3099.66;5094001;28;20542;-59
2022/11/19 00:33:32;;;;;;;10.37;5.03;;;;;;;17.24;100.00;-4390.06;5093228;28;20228;-59
2022/11/19 00:36:00;;;;;;;8.40;5.03;;;;;;;17.36;100.00;-4067.66;5093293;28;20188;-59
2022/11/19 00:38:28;;;;;;;6.10;4.60;;;;;;;17.46;100.00;-3422.34;5093038;28;20180;-59
2022/11/19 00:40:55;;;;;;;6.60;5.30;;;;;;;17.32;100.00;-2776.97;5093033;28;20184;-59
2022/11/19 00:46:24;;;;;;;9.57;5.23;;;;;;;17.49;100.00;-2453.97;5050815;28;20177;-59
2022/11/19 00:48:53;;;;;;;10.00;5.57;;;;;;;17.49;100.00;-3422.38;5050411;28;20190;-59
2022/11/19 00:51:22;;;;;;;13.90;5.67;;;;;;;17.55;100.00;-1485.13;5070377;28;20393;-59
2022/11/19 00:53:49;;;;;;;9.20;5.03;;;;;;;17.62;100.00;130.56;5093079;28;20550;-60
2022/11/19 00:56:18;;;;;;;8.93;5.60;;;;;;;17.61;100.00;1746.72;5093015;28;20189;-60
2022/11/19 00:58:45;;;;;;;6.87;5.87;;;;;;;17.40;100.00;3038.09;5091740;28;20559;-59
2022/11/19 01:01:14;;;;;;;6.10;5.43;;;;;;;17.64;100.00;3687.59;5093237;28;20191;-59
2022/11/19 01:03:44;;;;;;;11.80;5.73;;;;;;;17.67;100.00;4982.31;5092867;28;20643;-59
2022/11/19 01:06:11;;;;;;;12.30;6.50;;;;;;;17.63;100.00;6600.50;5092581;28;20279;-59
2022/11/19 01:08:38;;;;;;;7.57;6.77;;;;;;;17.71;100.00;7573.50;5093008;28;20673;-60
2022/11/19 01:11:08;;;;;;;10.57;8.03;;;;;;;17.57;100.00;8218.72;5092516;28;20226;-59
2022/11/19 01:13:36;;;;;;;12.83;8.13;;;;;;;17.70;100.00;9193.34;5092396;28;20511;-59
2022/11/19 01:16:05;;;;;;;23.50;10.87;;;;;;;17.60;100.00;7247.66;5092504;28;20278;-59
2022/11/19 01:18:32;;;;;;;14.80;10.70;;;;;;;17.40;100.00;4008.22;5092528;28;20630;-59
2022/11/19 01:21:00;;;;;;;12.97;11.67;;;;;;;17.24;100.00;3036.44;5092296;28;20188;-60
2022/11/19 01:23:28;;;;;;;19.90;11.70;;;;;;;17.39;100.00;4655.06;5092624;28;20233;-59
2022/11/19 01:25:54;;;;;;;19.27;11.40;;;;;;;17.42;100.00;4655.41;5092505;28;20194;-60
2022/11/19 01:28:22;;;;;;;13.33;10.83;;;;;;;17.44;100.00;6273.72;5092972;28;20566;-60
2022/11/19 01:30:48;;;;;;;14.43;10.90;;;;;;;17.52;100.00;8217.78;5092454;28;20574;-60
2022/11/19 01:33:16;;;;;;;14.37;10.23;;;;;;;17.59;100.00;8543.16;5091912;28;20238;-59
2022/11/19 01:35:43;;;;;;;12.23;10.33;;;;;;;17.59;100.00;11460.28;5091928;28;20234;-60
2022/11/19 01:38:11;;;;;;;11.77;7.93;;;;;;;17.61;100.00;12109.28;5092293;28;20649;-59
2022/11/19 01:40:43;;;;;;;7.17;6.60;;;;;;;17.72;100.00;15357.59;5092041;28;20187;-60
2022/11/19 01:43:11;;;;;;;9.97;9.03;;;;;;;17.68;100.00;15681.25;5092047;28;20191;-60
2022/11/19 01:45:40;;;;;;;11.20;6.93;;;;;;;17.51;100.00;16649.91;5092146;28;20195;-60
2022/11/19 01:48:12;;;;;;;19.10;7.97;;;;;;;17.67;100.00;17954.78;5091974;28;20188;-59
2022/11/19 01:50:45;;;;;;;8.47;6.60;;;;;;;17.73;100.00;18606.91;5092175;28;20570;-59
2022/11/19 01:53:14;;;;;;;10.47;7.47;;;;;;;17.68;100.00;20881.00;5092235;28;20187;-59
2022/11/19 01:55:44;;;;;;;8.40;6.30;;;;;;;17.78;100.00;21860.97;5092266;28;20266;-59
2022/11/19 01:58:14;;;;;;;9.87;6.83;;;;;;;17.82;100.00;22513.06;5091849;28;20805;-59
2022/11/19 02:00:42;;;;;;;9.13;6.20;;;;;;;17.75;100.00;23812.53;5091887;28;20271;-60
2022/11/19 02:03:10;;;;;;;10.90;6.10;;;;;;;17.55;100.00;21526.28;5091855;28;20188;-60
2022/11/19 02:05:37;;;;;;;6.60;6.20;;;;;;;17.47;100.00;21522.84;5091845;28;20188;-59
2022/11/19 02:08:08;;;;;;;10.47;6.47;;;;;;;17.48;100.00;20547.81;5091947;28;20188;-59
2022/11/19 02:10:49;;;;;;;7.07;6.00;;;;;;;17.51;100.00;22174.97;5091832;28;20211;-59
2022/11/19 02:13:24;;;;;;;6.70;5.73;;;;;;;17.50;100.00;23475.88;5092155;28;20176;-59
2022/11/19 02:15:57;;;;;;;6.63;6.00;;;;;;;17.50;100.00;24126.72;5091761;28;20187;-59
2022/11/19 02:18:39;;;;;;;6.60;6.00;;;;;;;17.48;100.00;24777.03;5091593;28;20180;-59
2022/11/19 02:21:18;;;;;;;7.27;6.63;;;;;;;17.52;100.00;25104.19;5091873;28;20180;-59
2022/11/19 02:24:13;;;;;;;7.07;6.37;;;;;;;17.55;100.00;27385.41;5093857;28;20291;-59
2022/11/19 02:27:24;;;;;;;7.07;6.50;;;;;;;17.46;100.00;26078.38;5095539;28;20184;-59
2022/11/19 02:30:11;;;;;;;9.80;7.87;;;;;;;17.48;100.00;29011.44;5095383;28;20218;-60
2022/11/19 02:32:58;;;;;;;9.23;8.37;;;;;;;17.46;100.00;28358.59;5095367;28;20235;-59
2022/11/19 02:35:35;;;;;;;7.53;5.67;;;;;;;17.50;100.00;26080.31;5095432;28;20188;-59
2022/11/19 02:38:10;;;;;;;6.23;5.70;;;;;;;17.44;100.00;26403.06;5095765;28;20570;-59
2022/11/19 02:40:40;;;;;;;7.53;6.03;;;;;;;17.37;100.00;25422.97;5095577;28;20233;-59
2022/11/19 02:43:15;;;;;;;6.87;6.17;;;;;;;17.34;100.00;27375.19;5095592;28;20184;-59
2022/11/19 02:45:49;;;;;;;9.20;7.20;;;;;;;17.36;100.00;31287.22;5095224;28;20180;-59
2022/11/19 02:48:21;;;;;;;8.40;7.60;;;;;;;17.45;100.00;34554.97;5095139;28;20184;-60
2022/11/19 02:50:51;;;;;;;9.43;8.43;;;;;;;17.41;100.00;37491.34;5094979;28;20302;-59
2022/11/19 02:53:18;;;;;;;11.33;8.50;;;;;;;17.50;100.00;44693.88;5095051;28;20276;-60
2022/11/19 02:56:09;;;;;;;12.20;10.90;;;;;;;17.41;100.00;56823.56;5095280;28;20596;-59
2022/11/19 03:04:29;;;;;;;13.93;8.97;;;;;;;17.60;100.00;78605.16;5095213;28;20175;-60
2022/11/19 03:06:59;;;;;;;11.87;9.20;;;;;;;17.65;100.00;83578.53;5095188;28;20270;-60
2022/11/19 03:09:27;;;;;;;11.70;8.53;;;;;;;17.65;100.00;85566.25;5094968;28;20194;-60
2022/11/19 03:12:04;;;;;;;10.23;8.97;;;;;;;17.65;100.00;83909.88;5093467;28;20273;-59
2022/11/19 03:17:30;;;;;;;18.93;8.73;;;;;;;17.69;100.00;83583.53;5094721;28;20184;-58
2022/11/19 03:20:01;;;;;;;16.43;7.27;;;;;;;17.61;100.00;84235.47;5094715;28;20270;-60
2022/11/19 03:22:34;;;;;;;9.73;7.70;;;;;;;17.61;100.00;81253.97;5095004;28;20195;-60
2022/11/19 03:25:06;;;;;;;10.70;6.40;;;;;;;17.46;100.00;78587.03;5094576;28;20190;-58
2022/11/19 03:27:37;;;;;;;8.50;5.87;;;;;;;17.67;100.00;80600.13;5094851;28;20180;-59
2022/11/19 03:30:05;;;;;;;10.40;6.13;;;;;;;17.72;100.00;86903.56;5094684;28;20216;-60
2022/11/19 03:32:36;;;;;;;5.43;4.90;;;;;;;17.68;100.00;90878.88;5094487;28;20236;-60
2022/11/19 03:35:08;;;;;;;5.73;4.57;;;;;;;17.74;100.00;94211.09;5093874;28;20207;-60
2022/11/19 03:37:39;;;;;;;4.50;4.23;;;;;;;17.74;100.00;97869.16;5094622;28;20192;-60
2022/11/19 03:40:09;;;;;;;4.90;4.50;;;;;;;17.67;100.00;94532.25;5094760;28;20257;-60
2022/11/19 03:42:38;;;;;;;4.37;3.77;;;;;;;17.45;100.00;91176.00;5094730;28;20199;-59
2022/11/19 03:45:11;;;;;;;4.30;4.00;;;;;;;17.51;100.00;87204.06;5094757;28;20184;-59
2022/11/19 03:47:43;;;;;;;5.53;4.43;;;;;;;17.51;100.00;82895.50;5095242;28;20188;-59
2022/11/19 03:50:17;;;;;;;4.90;4.17;;;;;;;17.46;100.00;87859.81;5094234;28;20254;-59
2022/11/19 03:52:44;;;;;;;5.30;4.23;;;;;;;17.44;100.00;77922.31;5093915;28;20184;-59
2022/11/19 03:55:11;;;;;;;4.57;4.37;;;;;;;17.44;100.00;75939.63;5093873;28;20184;-59
2022/11/19 03:57:38;;;;;;;3.80;3.60;;;;;;;17.44;100.00;75609.19;5094131;28;20582;-59
2022/11/19 04:00:06;;;;;;;4.30;4.00;;;;;;;17.46;100.00;77264.38;5093811;28;20184;-59
2022/11/19 04:02:34;;;;;;;3.73;3.43;;;;;;;17.27;100.00;82862.31;5093761;28;20184;-59
2022/11/19 04:05:02;;;;;;;4.23;3.43;;;;;;;17.39;100.00;90502.22;5093657;28;20188;-60
2022/11/19 04:07:29;;;;;;;2.83;2.63;;;;;;;17.43;100.00;94493.72;5094027;28;20188;-59
2022/11/19 04:09:56;;;;;;;2.93;2.80;;;;;;;17.45;100.00;99484.19;5093562;28;20236;-59
2022/11/19 04:12:24;;;;;;;2.73;2.53;;;;;;;17.43;100.00;99813.56;5093866;28;20184;-60
2022/11/19 04:14:52;;;;;;;1.90;1.80;;;;;;;17.43;100.00;103808.81;5093503;28;20200;-60
2022/11/19 04:17:20;;;;;;;1.77;1.67;;;;;;;17.34;100.00;107458.75;5093376;28;20280;-59
2022/11/19 04:19:47;;;;;;;1.63;1.53;;;;;;;17.32;100.00;101791.63;5093368;28;20188;-60
2022/11/19 04:22:15;;;;;;;1.60;1.50;;;;;;;17.26;100.00;98787.81;5093366;28;20187;-59
2022/11/19 04:24:42;;;;;;;1.83;1.73;;;;;;;17.24;100.00;92802.94;5093408;28;20202;-60
2022/11/19 04:27:09;;;;;;;2.07;1.60;;;;;;;17.07;100.00;91781.44;5093151;28;20183;-60
2022/11/19 04:29:36;;;;;;;1.30;1.30;;;;;;;17.29;100.00;93474.91;5093190;28;20180;-60
2022/11/19 04:32:03;;;;;;;1.40;1.40;;;;;;;17.34;100.00;96141.41;5093123;28;20611;-58
2022/11/19 04:34:30;;;;;;;2.40;1.27;;;;;;;17.31;100.00;93810.19;5093175;28;20195;-59
2022/11/19 04:36:57;;;;;;;1.87;1.30;;;;;;;17.31;100.00;93146.78;5092972;28;20220;-60
2022/11/19 04:39:25;;;;;;;1.50;1.40;;;;;;;17.25;100.00;80213.00;5093295;28;20554;-59
2022/11/19 04:41:52;;;;;;;2.20;1.50;;;;;;;17.11;100.00;66991.44;5092961;28;20198;-59
2022/11/19 04:44:19;;;;;;;1.30;1.30;;;;;;;17.16;100.00;60085.22;5093257;28;20192;-59
2022/11/19 04:46:46;;;;;;;1.30;1.30;;;;;;;16.93;100.00;54150.75;5093110;28;20184;-59
2022/11/19 04:49:13;;;;;;;1.30;1.20;;;;;;;17.09;100.00;50557.81;5092870;28;20279;-60
2022/11/19 04:51:40;;;;;;;1.47;1.47;;;;;;;17.10;100.00;48919.97;5092972;28;20226;-59
2022/11/19 04:54:08;;;;;;;1.20;1.20;;;;;;;17.10;100.00;46627.47;5092718;28;20192;-59
2022/11/19 04:56:37;;;;;;;1.90;1.37;;;;;;;16.96;100.00;42036.00;5092994;28;20188;-59
2022/11/19 04:59:04;;;;;;;1.60;1.50;;;;;;;16.96;100.00;42689.91;5092741;28;20180;-59
2022/11/19 05:01:31;;;;;;;1.20;1.20;;;;;;;16.97;100.00;43671.41;5092871;28;20180;-59
2022/11/19 05:03:58;;;;;;;1.67;1.37;;;;;;;16.98;100.00;41383.28;5092603;28;20188;-59
2022/11/19 05:06:25;;;;;;;1.50;1.40;;;;;;;16.98;100.00;43018.03;5092530;28;20183;-59
2022/11/19 05:08:51;;;;;;;1.30;1.30;;;;;;;16.93;100.00;43014.28;5092465;28;20194;-60
2022/11/19 05:11:18;;;;;;;1.40;1.30;;;;;;;16.81;100.00;41698.44;5092507;28;20206;-60
2022/11/19 05:13:47;;;;;;;1.27;1.27;;;;;;;16.92;100.00;46612.81;5092308;28;20187;-60
2022/11/19 05:16:14;;;;;;;1.57;1.57;;;;;;;16.87;100.00;50539.34;5092656;28;20187;-59
2022/11/19 05:18:41;;;;;;;1.40;1.30;;;;;;;16.89;100.00;53163.41;5092222;28;20264;-60
2022/11/19 05:21:07;;;;;;;1.20;1.20;;;;;;;16.79;100.00;54138.56;5092266;28;20191;-59
2022/11/19 05:23:34;;;;;;;5.90;1.50;;;;;;;16.76;100.00;55776.13;5092186;28;20188;-59
2022/11/19 05:26:01;;;;;;;1.80;1.70;;;;;;;16.89;100.00;55132.28;5092591;28;20210;-59
2022/11/19 05:28:30;;;;;;;1.47;1.47;;;;;;;16.86;100.00;52177.38;5092393;28;20643;-59
2022/11/19 05:30:58;;;;;;;1.20;1.20;;;;;;;16.89;100.00;51196.16;5092317;28;20666;-59
2022/11/19 05:33:25;;;;;;;1.43;1.40;;;;;;;16.82;100.00;50862.66;5091996;28;20227;-59
2022/11/19 05:35:52;;;;;;;1.40;1.40;;;;;;;16.88;100.00;47919.56;5092309;28;20210;-58
2022/11/19 05:38:19;;;;;;;1.30;1.30;;;;;;;16.84;100.00;43661.81;5092116;28;20194;-59
2022/11/19 05:40:46;;;;;;;1.90;1.53;;;;;;;16.88;100.00;45955.38;5091953;28;20184;-59
2022/11/19 05:43:13;;;;;;;1.90;1.80;;;;;;;16.84;100.00;47915.78;5091908;28;20237;-60
2022/11/19 05:45:40;;;;;;;1.67;1.60;;;;;;;16.93;100.00;47595.84;5091844;28;20198;-59
2022/11/19 05:48:08;;;;;;;1.20;1.20;;;;;;;16.94;100.00;50216.91;5091773;28;20183;-60
2022/11/19 05:50:35;;;;;;;1.67;1.57;;;;;;;16.89;100.00;51852.22;5092004;28;20574;-59
2022/11/19 05:53:03;;;;;;;1.80;1.80;;;;;;;16.97;100.00;53170.34;5091797;28;20180;-60
2022/11/19 05:55:31;;;;;;;1.53;1.50;;;;;;;17.10;100.00;56136.34;5091897;28;20184;-59
2022/11/19 05:57:58;;;;;;;2.00;1.90;;;;;;;17.25;100.00;58450.81;5091709;28;20661;-60
2022/11/19 06:00:25;;;;;;;2.20;1.70;;;;;;;17.55;100.00;74962.50;5092128;28;20180;-59
2022/11/19 06:02:52;;;;;;;1.90;1.90;;;;;;;17.80;100.00;96880.16;5091657;28;20184;-60
2022/11/19 06:05:20;;;;;;;2.03;1.93;;;;;;;18.18;100.00;131060.44;5091798;28;20184;-60
2022/11/19 06:07:47;;;;;;;1.80;1.77;;;;;;;18.39;100.00;150660.03;5091652;28;20192;-59
2022/11/19 06:10:14;;;;;;;1.90;1.80;;;;;;;18.37;100.00;150653.69;5091572;28;20192;-59
2022/11/19 06:12:42;;;;;;;4.93;1.90;;;;;;;18.30;100.00;150635.88;5091915;28;20180;-59
2022/11/19 06:15:10;;;;;;;2.33;2.20;;;;;;;18.60;100.00;150713.50;5090759;28;20210;-59
2022/11/19 06:17:37;;;;;;;2.70;2.30;;;;;;;18.69;100.00;150736.41;5091570;28;20211;-60
2022/11/19 06:20:07;;;;;;;6.67;3.10;;;;;;;19.02;100.00;150817.78;5091523;28;20278;-60
2022/11/19 06:22:35;;;;;;;7.23;6.83;;;;;;;19.27;100.00;150881.41;5091491;28;20249;-61
2022/11/19 06:25:03;;;;;;;8.53;7.73;;;;;;;19.76;100.00;151003.66;5091858;28;20188;-60
2022/11/19 06:27:30;;;;;;;4.73;4.43;;;;;;;19.85;100.00;151026.56;5091754;28;20627;-61
2022/11/19 06:29:57;;;;;;;3.13;3.03;;;;;;;19.87;100.00;151032.91;5091768;28;20550;-61
2022/11/19 06:32:23;;;;;;;1.93;1.90;;;;;;;20.37;100.00;151159.00;5091537;28;20239;-60
2022/11/19 06:34:50;;;;;;;2.10;1.80;;;;;;;20.91;100.00;151295.31;5091642;28;20555;-61
2022/11/19 06:37:17;;;;;;;1.83;1.73;;;;;;;21.14;100.00;151352.66;5091710;28;20204;-60
2022/11/19 06:39:46;;;;;;;1.70;1.60;;;;;;;21.50;100.00;151441.88;5091665;28;20643;-61
2022/11/19 06:44:57;;;;;;;2.08;1.88;;;;;;;21.59;100.00;151464.81;5091334;28;20172;-61
2022/11/19 06:47:24;;;;;;;6.22;2.40;;;;;;;21.96;100.00;151557.91;5091518;28;20645;-61
2022/11/19 06:49:51;;;;;;;5.85;2.00;;;;;;;22.28;100.00;151640.75;5090474;28;20536;-61
2022/11/19 06:52:18;;;;;;;2.42;1.50;;;;;;;22.58;100.00;151714.72;5091284;28;20208;-61
2022/11/19 06:54:46;;;;;;;1.90;1.80;;;;;;;22.82;100.00;151776.03;5091237;28;20264;-61
2022/11/19 06:57:13;;;;;;;2.05;1.80;;;;;;;23.21;100.00;151874.28;5090065;28;20188;-62
2022/11/19 06:59:40;;;;;;;1.40;1.30;;;;;;;23.62;100.00;151977.66;5091481;28;20708;-61
2022/11/19 07:02:08;;;;;;;1.98;1.50;;;;;;;23.60;100.00;151972.53;5091350;28;20180;-61
2022/11/19 07:04:34;;;;;;;1.48;1.48;;;;;;;24.09;100.00;152097.66;5091378;28;20649;-61
2022/11/19 07:07:01;;;;;;;2.05;1.80;;;;;;;24.51;100.00;152202.41;5091403;28;20207;-62
2022/11/19 07:09:28;;;;;;;1.30;1.30;;;;;;;25.04;98.32;152335.28;5091282;28;20192;-62
2022/11/19 07:11:56;;;;;;;2.00;1.60;;;;;;;25.09;98.59;152348.03;5094514;28;20199;-62
2022/11/19 07:14:23;;;;;;;1.52;1.42;;;;;;;25.40;92.49;152427.25;5094928;28;20184;-61
2022/11/19 07:16:50;;;;;;;2.05;1.95;;;;;;;25.10;91.60;152350.59;5094544;28;20184;-62
2022/11/19 07:19:18;;;;;;;2.45;1.63;;;;;;;24.49;94.51;152198.56;5094745;28;20646;-61
2022/11/19 07:21:45;;;;;;;2.33;1.70;;;;;;;24.77;94.28;152268.81;5094590;28;20180;-62
2022/11/19 07:24:12;;;;;;;1.95;1.85;;;;;;;24.82;93.64;152281.59;5094930;28;20188;-62
2022/11/19 07:26:39;;;;;;;1.83;1.73;;;;;;;25.02;91.74;152332.72;5094469;28;20241;-61
2022/11/19 07:29:08;;;;;;;4.22;2.40;;;;;;;25.18;90.16;152371.03;5094377;28;20194;-62
2022/11/19 07:31:35;;;;;;;2.92;2.22;;;;;;;25.39;88.83;152424.69;5094147;28;20250;-61
2022/11/19 07:34:05;;;;;;;3.65;1.73;;;;;;;25.64;88.03;152487.34;5094112;28;20304;-62
2022/11/19 07:36:32;;;;;;;3.05;1.92;;;;;;;26.18;80.39;152624.16;5094234;28;20547;-61
2022/11/19 07:38:59;;;;;;;2.08;1.38;;;;;;;26.16;80.57;152619.03;5094506;28;20562;-61
2022/11/19 07:44:12;;;;;;;2.05;1.95;;;;;;;26.85;77.19;152793.03;5094196;28;20256;-62
2022/11/19 07:46:39;;;;;;;3.20;1.55;;;;;;;27.22;73.80;152887.66;5092681;28;20234;-62
2022/11/19 07:49:06;;;;;;;3.33;1.70;;;;;;;26.57;75.26;152723.91;5094298;28;20671;-62
2022/11/19 07:51:33;;;;;;;2.30;1.60;;;;;;;26.63;76.04;152739.25;5093863;28;20602;-62
2022/11/19 07:54:00;;;;;;;1.55;1.45;;;;;;;26.79;76.21;152780.19;5093872;28;20194;-62
2022/11/19 07:56:27;;;;;;;2.30;2.10;;;;;;;26.22;81.45;152635.72;5093902;28;20191;-62
2022/11/19 07:58:54;;;;;;;14.32;11.40;;;;;;;26.82;79.25;152787.84;5093882;28;20188;-62
2022/11/19 08:01:23;;;;;;;12.43;11.02;;;;;;;27.11;76.23;152859.53;5093903;28;20184;-62
2022/11/19 08:03:52;;;;;;;3.03;2.80;;;;;;;26.59;77.20;152727.75;5093857;28;20613;-61
2022/11/19 08:06:20;;;;;;;8.82;7.30;;;;;;;26.29;80.17;152652.31;5093692;28;20195;-61
2022/11/19 08:08:48;;;;;;;6.63;6.07;;;;;;;24.94;87.24;152311.00;5093886;28;20194;-61
2022/11/19 08:11:16;;;;;;;12.40;10.20;;;;;;;24.77;89.02;152267.53;5092229;28;20204;-61
2022/11/19 08:13:43;;;;;;;9.23;7.32;;;;;;;24.26;94.15;152138.56;5093814;28;20555;-61
2022/11/19 08:16:12;;;;;;;3.75;3.05;;;;;;;23.75;97.05;152010.84;5093514;28;20215;-61
2022/11/19 08:18:39;;;;;;;12.75;11.43;;;;;;;23.84;95.65;152033.84;5093240;28;20202;-61
2022/11/19 08:21:08;;;;;;;6.00;3.30;;;;;;;24.57;89.77;152217.69;5093257;28;20177;-60
2022/11/19 08:23:35;;;;;;;1.50;1.50;;;;;;;25.35;84.14;152414.47;5093407;28;20192;-61
2022/11/19 08:26:02;;;;;;;1.98;1.88;;;;;;;25.33;81.17;152410.63;5093790;28;20665;-61
2022/11/19 08:28:29;;;;;;;2.80;2.60;;;;;;;25.33;81.79;152410.63;5093517;28;20204;-61
2022/11/19 08:30:57;;;;;;;10.68;8.65;;;;;;;24.84;82.56;152285.41;5093160;28;20241;-61
2022/11/19 08:33:24;;;;;;;11.23;10.20;;;;;;;24.91;82.60;152303.31;5093253;28;20370;-60
2022/11/19 08:35:56;;;;;;;6.20;3.20;;;;;;;25.23;78.61;152385.09;5093407;28;20184;-61
2022/11/19 08:38:23;;;;;;;2.40;2.20;;;;;;;26.51;75.58;152708.59;5093308;28;20184;-60
2022/11/19 08:40:52;;;;;;;6.70;2.05;;;;;;;27.22;69.09;152888.97;5092955;28;20188;-61
2022/11/19 08:43:38;;;;;;;1.98;1.55;;;;;;;27.76;65.68;153024.59;5092810;28;20628;-61
2022/11/19 08:46:05;;;;;;;1.98;1.80;;;;;;;28.37;59.79;153179.56;5092036;28;20188;-62
2022/11/19 08:48:32;;;;;;;2.55;1.73;;;;;;;29.07;57.57;153355.03;5092905;28;20184;-63
2022/11/19 08:51:03;;;;;;;1.92;1.83;;;;;;;28.82;57.02;153292.25;5092740;28;20192;-62
2022/11/19 08:53:30;;;;;;;1.98;1.88;;;;;;;28.94;55.88;153323.03;5092569;28;20188;-61
2022/11/19 08:55:57;;;;;;;1.88;1.77;;;;;;;29.77;53.62;153533.13;5093068;28;20608;-62
2022/11/19 08:58:24;;;;;;;2.05;1.95;;;;;;;30.62;51.19;153748.53;5091422;28;20192;-62
2022/11/19 09:00:51;;;;;;;1.60;1.50;;;;;;;30.60;51.95;153744.66;5092664;28;20275;-62
2022/11/19 09:03:18;;;;;;;1.52;1.52;;;;;;;30.37;51.24;153686.97;5092635;28;20184;-62
2022/11/19 09:05:45;;;;;;;2.08;1.92;;;;;;;30.09;51.46;153613.88;5092796;28;20661;-62
2022/11/19 09:08:13;;;;;;;2.30;1.95;;;;;;;29.78;53.51;153536.97;5092535;28;20191;-63
2022/11/19 09:10:40;;;;;;;1.60;1.60;;;;;;;29.62;54.75;153494.72;5092441;28;20188;-62
2022/11/19 09:13:07;;;;;;;2.40;2.30;;;;;;;29.16;56.34;153379.34;5092639;28;20239;-62
2022/11/19 09:15:35;;;;;;;2.10;2.00;;;;;;;28.89;57.86;153311.50;5092435;28;20184;-61
2022/11/19 09:18:02;;;;;;;1.80;1.70;;;;;;;28.90;58.45;153312.72;5092378;28;20239;-62
2022/11/19 09:20:29;;;;;;;2.00;2.00;;;;;;;28.26;61.10;153150.13;5092201;28;20194;-61
2022/11/19 09:22:56;;;;;;;1.90;1.90;;;;;;;26.85;68.38;152794.31;5092518;28;20191;-61
2022/11/19 09:25:24;;;;;;;2.30;2.20;;;;;;;26.05;74.35;152592.19;5092072;28;20184;-61
2022/11/19 09:27:51;;;;;;;1.85;1.85;;;;;;;24.82;80.61;152281.59;5092072;28;20195;-60
2022/11/19 09:30:18;;;;;;;1.95;1.85;;;;;;;25.72;77.58;152509.09;5091991;28;20188;-61
2022/11/19 09:32:45;;;;;;;2.30;2.13;;;;;;;26.34;73.94;152665.09;5091097;28;20242;-61
2022/11/19 09:35:12;;;;;;;1.85;1.75;;;;;;;26.70;70.82;152757.16;5091905;28;20188;-60
2022/11/19 09:37:39;;;;;;;2.22;1.77;;;;;;;26.77;69.46;152775.09;5092247;28;20570;-61
2022/11/19 09:40:08;;;;;;;2.42;2.33;;;;;;;26.28;72.80;152651.03;5092270;28;20638;-61
2022/11/19 09:42:45;;;;;;;2.35;1.73;;;;;;;25.25;80.42;152388.97;5091877;28;20188;-61
2022/11/19 09:45:19;;;;;;;1.88;1.88;;;;;;;23.91;89.84;152051.69;5092165;28;20183;-61
2022/11/19 09:48:08;;;;;;;2.10;2.00;;;;;;;23.69;92.33;151995.50;5092027;28;20187;-61
2022/11/19 09:50:45;;;;;;;1.83;1.75;;;;;;;23.83;91.46;152030.00;5092094;28;20195;-60
2022/11/19 09:53:17;;;;;;;2.25;2.08;;;;;;;24.37;86.74;152166.63;5091742;28;20206;-60
2022/11/19 09:55:46;;;;;;;1.95;1.90;;;;;;;24.94;84.36;152312.28;5092062;28;20187;-61
2022/11/19 09:58:20;;;;;;;2.45;2.25;;;;;;;24.88;84.39;152296.94;5091767;28;20179;-61
2022/11/19 10:00:47;;;;;;;3.88;2.70;;;;;;;24.07;86.75;152092.53;5091693;28;20194;-60
2022/11/19 10:03:16;;;;;;;4.30;2.05;;;;;;;23.34;91.22;151906.16;5092038;28;20206;-61
2022/11/19 10:05:59;;;;;;;2.47;2.00;;;;;;;23.36;92.71;151912.53;5091968;28;20562;-61
2022/11/19 10:08:39;;;;;;;1.90;1.88;;;;;;;23.95;89.22;152060.63;5090781;28;20267;-60
2022/11/19 10:11:21;;;;;;;2.58;2.47;;;;;;;24.01;87.16;152075.97;5091873;28;20230;-60
2022/11/19 10:13:58;;;;;;;6.82;3.47;;;;;;;24.34;86.51;152158.97;5091523;28;20214;-61
2022/11/19 10:16:39;;;;;;;3.30;2.90;;;;;;;24.33;85.16;152156.41;5091630;28;20271;-60
2022/11/19 10:19:19;;;;;;;3.50;3.30;;;;;;;24.46;84.32;152189.63;5091527;28;20290;-60
2022/11/19 10:21:55;;;;;;;3.25;3.05;;;;;;;23.87;87.77;152041.47;5091604;28;20180;-61
2022/11/19 10:24:34;;;;;;;2.88;2.78;;;;;;;24.17;87.33;152116.84;5091789;28;20274;-60
2022/11/19 10:27:09;;;;;;;2.70;2.50;;;;;;;24.11;87.04;152102.75;5091839;28;20638;-60
2022/11/19 10:29:39;;;;;;;2.20;2.10;;;;;;;23.87;89.42;152041.47;5092500;28;20195;-60
2022/11/19 10:32:31;;;;;;;2.60;2.50;;;;;;;24.70;84.69;152249.63;5091221;28;20216;-60
2022/11/19 10:35:03;;;;;;;2.53;2.42;;;;;;;24.57;81.25;152217.69;5091736;28;20634;-61
2022/11/19 10:37:35;;;;;;;2.20;2.10;;;;;;;25.32;78.22;152406.81;5091597;28;20198;-60
2022/11/19 10:40:07;;;;;;;2.08;2.08;;;;;;;25.72;76.58;152509.09;5091701;28;20188;-60
2022/11/19 10:42:37;;;;;;;3.38;3.28;;;;;;;25.94;74.46;152564.03;5091329;28;20188;-61
2022/11/19 10:45:15;;;;;;;2.42;2.33;;;;;;;26.43;71.73;152688.13;5093926;28;20206;-61
2022/11/19 10:47:48;;;;;;;2.17;2.08;;;;;;;26.23;71.51;152638.22;5095228;28;20180;-62
2022/11/19 10:50:19;;;;;;;2.40;2.20;;;;;;;26.50;69.82;152706.00;5095538;28;20184;-61
2022/11/19 10:52:51;;;;;;;1.90;1.90;;;;;;;26.19;71.52;152627.97;5095224;28;20242;-61
2022/11/19 10:55:25;;;;;;;2.42;2.20;;;;;;;26.61;69.40;152734.13;5095460;28;20555;-61
2022/11/19 10:58:11;;;;;;;2.38;2.28;;;;;;;26.82;68.01;152786.56;5095290;28;20206;-61
2022/11/19 11:00:42;;;;;;;2.30;2.20;;;;;;;27.40;66.36;152933.75;5093781;28;20184;-60
2022/11/19 11:03:24;;;;;;;1.88;1.88;;;;;;;27.67;63.93;153002.84;5095142;28;20189;-61
2022/11/19 11:05:57;;;;;;;2.63;1.73;;;;;;;26.95;66.04;152818.56;5094746;28;20245;-60
2022/11/19 11:08:24;;;;;;;2.33;2.22;;;;;;;27.61;64.71;152987.53;5094803;28;20188;-61
2022/11/19 11:10:52;;;;;;;2.17;2.08;;;;;;;27.81;62.85;153036.13;5094723;28;20194;-60
2022/11/19 11:16:44;;;;;;;2.45;2.33;;;;;;;24.86;75.68;152291.88;5094822;28;20567;-60
2022/11/19 11:19:16;;;;;;;11.25;2.65;;;;;;;24.93;78.79;152309.72;5094958;28;20586;-60
2022/11/19 11:21:44;;;;;;;5.57;2.30;;;;;;;24.68;82.26;152245.81;5094533;28;20194;-60
2022/11/19 11:24:12;;;;;;;2.03;1.70;;;;;;;24.34;83.65;152158.97;5094810;28;20183;-61
2022/11/19 11:26:40;;;;;;;1.50;1.50;;;;;;;23.78;89.19;152017.22;5094714;28;20188;-61
2022/11/19 11:29:25;;;;;;;2.10;2.10;;;;;;;23.37;91.95;151915.09;5094380;28;20220;-61
2022/11/19 11:31:54;;;;;;;2.05;1.95;;;;;;;22.78;95.29;151765.81;5092939;28;20204;-60
2022/11/19 11:34:32;;;;;;;1.67;1.67;;;;;;;22.56;98.56;151710.94;5094353;28;20194;-60
2022/11/19 11:37:02;;;;;;;2.17;1.98;;;;;;;22.63;99.64;151727.50;5094687;28;20634;-60
2022/11/19 11:39:31;;;;;;;2.53;2.30;;;;;;;22.66;100.00;151736.41;5094270;28;20176;-60
2022/11/19 11:42:00;;;;;;;3.55;2.53;;;;;;;22.43;100.00;151676.47;5094141;28;20230;-60
2022/11/19 11:44:29;;;;;;;2.30;2.13;;;;;;;22.30;100.00;151645.88;5094209;28;20188;-61
2022/11/19 11:46:59;;;;;;;3.63;2.47;;;;;;;22.46;100.00;151684.13;5094108;28;20194;-60
2022/11/19 11:49:30;;;;;;;2.30;2.20;;;;;;;22.48;100.00;151690.53;5094018;28;20189;-59
2022/11/19 11:52:17;;;;;;;3.05;2.85;;;;;;;22.38;100.00;151665.00;5093872;28;20184;-61
2022/11/19 11:55:00;;;;;;;2.72;2.53;;;;;;;22.38;100.00;151663.72;5093953;28;20184;-60
2022/11/19 11:57:28;;;;;;;2.97;2.88;;;;;;;22.42;100.00;151675.19;5093356;28;20188;-61